FDB336 OPKC-OMDB
Flight info
| Callsign | FDB336 |
|---|---|
| Flight time | N/A |
| Altitude | 38000 |
| Route | MELOM A454 PASOV B540 KUPMA/N0392F240 B540 MIVEK P574 IMPED |
| Aircraft | A20N/M-SDE2E3FGHIRWXY/LB1 |
Departure
| Time | 2026-05-07 08:08 |
|---|---|
| Airport | Jinnah International Airport (OPKC) |
Arrival
| Time | N/A |
|---|---|
| Airport | Dubai International Airport (OMDB) |
| Time | Latitude | Longitude | Altitude | Speed | Heading |
|---|---|---|---|---|---|
| 2026-05-07 07:59 | 24.90151 | 67.16529 | 98 ft | 0 kts | 86° |
| 2026-05-07 08:02 | 24.90150 | 67.16515 | 101 ft | 6 kts | 81° |
| 2026-05-07 08:02 | 24.90144 | 67.16462 | 100 ft | 5 kts | 81° |
| 2026-05-07 08:02 | 24.90124 | 67.16431 | 100 ft | 0 kts | 344° |
| 2026-05-07 08:04 | 24.90127 | 67.16430 | 98 ft | 3 kts | 344° |
| 2026-05-07 08:04 | 24.90170 | 67.16416 | 101 ft | 10 kts | 344° |
| 2026-05-07 08:04 | 24.90255 | 67.16386 | 101 ft | 16 kts | 339° |
| 2026-05-07 08:05 | 24.90359 | 67.16359 | 101 ft | 13 kts | 360° |
| 2026-05-07 08:05 | 24.90410 | 67.16436 | 102 ft | 16 kts | 73° |
| 2026-05-07 08:05 | 24.90448 | 67.16574 | 101 ft | 22 kts | 73° |
| 2026-05-07 08:05 | 24.90491 | 67.16756 | 101 ft | 27 kts | 75° |
| 2026-05-07 08:06 | 24.90528 | 67.16905 | 101 ft | 22 kts | 74° |
| 2026-05-07 08:06 | 24.90587 | 67.17007 | 102 ft | 14 kts | 10° |
| 2026-05-07 08:06 | 24.90655 | 67.16993 | 104 ft | 0 kts | 344° |
| 2026-05-07 08:07 | 24.90678 | 67.16986 | 105 ft | 8 kts | 344° |
| 2026-05-07 08:07 | 24.90723 | 67.16959 | 107 ft | 13 kts | 302° |
| 2026-05-07 08:07 | 24.90675 | 67.16686 | 105 ft | 71 kts | 255° |
| 2026-05-07 08:08 | 24.90534 | 67.16196 | 105 ft | 127 kts | 252° |
| 2026-05-07 08:08 | 24.90314 | 67.15087 | 556 ft | 162 kts | 258° |
| 2026-05-07 08:08 | 24.89908 | 67.13754 | 888 ft | 211 kts | 235° |
| 2026-05-07 08:08 | 24.88576 | 67.12606 | 623 ft | 281 kts | 205° |
| 2026-05-07 08:09 | 24.86577 | 67.11937 | 793 ft | 304 kts | 195° |
| 2026-05-07 08:09 | 24.84570 | 67.11415 | 1216 ft | 283 kts | 200° |
| 2026-05-07 08:09 | 24.82889 | 67.10479 | 1712 ft | 263 kts | 215° |
| 2026-05-07 08:09 | 24.81464 | 67.09289 | 2132 ft | 249 kts | 222° |
| 2026-05-07 08:10 | 24.80183 | 67.08063 | 2499 ft | 241 kts | 224° |
| 2026-05-07 08:10 | 24.78936 | 67.06841 | 2746 ft | 240 kts | 224° |
| 2026-05-07 08:10 | 24.77681 | 67.05627 | 3024 ft | 235 kts | 224° |
| 2026-05-07 08:10 | 24.76524 | 67.04533 | 3834 ft | 203 kts | 223° |
| 2026-05-07 08:11 | 24.75501 | 67.03580 | 4323 ft | 192 kts | 223° |
| 2026-05-07 08:11 | 24.74481 | 67.02623 | 4559 ft | 193 kts | 223° |
| 2026-05-07 08:11 | 24.73448 | 67.01635 | 4825 ft | 206 kts | 226° |
| 2026-05-07 08:11 | 24.72396 | 67.00479 | 5376 ft | 218 kts | 224° |
| 2026-05-07 08:12 | 24.71231 | 66.99375 | 6116 ft | 223 kts | 227° |
| 2026-05-07 08:12 | 24.70557 | 66.97881 | 6802 ft | 221 kts | 268° |
| 2026-05-07 08:12 | 24.70922 | 66.96296 | 7557 ft | 216 kts | 304° |
| 2026-05-07 08:12 | 24.71870 | 66.95020 | 8355 ft | 216 kts | 315° |
| 2026-05-07 08:13 | 24.72932 | 66.93854 | 9164 ft | 217 kts | 317° |
| 2026-05-07 08:13 | 24.74024 | 66.92702 | 9951 ft | 218 kts | 318° |
| 2026-05-07 08:13 | 24.75129 | 66.91544 | 10702 ft | 220 kts | 318° |
| 2026-05-07 08:13 | 24.76259 | 66.90361 | 11624 ft | 226 kts | 319° |
| 2026-05-07 08:14 | 24.77403 | 66.89161 | 12696 ft | 229 kts | 319° |
| 2026-05-07 08:14 | 24.78559 | 66.87945 | 13780 ft | 231 kts | 319° |
| 2026-05-07 08:14 | 24.79730 | 66.86714 | 14705 ft | 236 kts | 319° |
| 2026-05-07 08:14 | 24.80928 | 66.85457 | 15620 ft | 240 kts | 319° |
| 2026-05-07 08:15 | 24.82146 | 66.84177 | 16526 ft | 244 kts | 318° |
| 2026-05-07 08:15 | 24.83387 | 66.82873 | 17151 ft | 248 kts | 318° |
| 2026-05-07 08:15 | 24.84677 | 66.81520 | 17421 ft | 268 kts | 318° |
| 2026-05-07 08:15 | 24.86085 | 66.80045 | 17558 ft | 291 kts | 318° |
| 2026-05-07 08:16 | 24.87617 | 66.78441 | 17681 ft | 314 kts | 318° |
| 2026-05-07 08:16 | 24.89239 | 66.76739 | 17764 ft | 337 kts | 317° |
| 2026-05-07 08:16 | 24.90998 | 66.74893 | 17765 ft | 361 kts | 317° |
| 2026-05-07 08:16 | 24.92874 | 66.72923 | 17769 ft | 384 kts | 317° |
| 2026-05-07 08:17 | 24.94867 | 66.70829 | 17770 ft | 404 kts | 317° |
| 2026-05-07 08:17 | 24.96929 | 66.68604 | 17769 ft | 423 kts | 313° |
| 2026-05-07 08:17 | 24.98661 | 66.65904 | 17772 ft | 441 kts | 300° |
| 2026-05-07 08:17 | 24.99860 | 66.62723 | 17804 ft | 457 kts | 287° |
| 2026-05-07 08:18 | 25.00401 | 66.59258 | 18215 ft | 462 kts | 275° |
| 2026-05-07 08:18 | 25.00267 | 66.55705 | 18686 ft | 466 kts | 263° |
| 2026-05-07 08:18 | 24.99601 | 66.52241 | 19098 ft | 468 kts | 258° |
| 2026-05-07 08:18 | 24.98853 | 66.48747 | 19502 ft | 470 kts | 260° |
| 2026-05-07 08:19 | 24.98235 | 66.45194 | 19875 ft | 471 kts | 262° |
| 2026-05-07 08:19 | 24.97754 | 66.41616 | 20240 ft | 473 kts | 265° |
| 2026-05-07 08:19 | 24.97357 | 66.38013 | 20620 ft | 474 kts | 266° |
| 2026-05-07 08:19 | 24.96998 | 66.34382 | 20951 ft | 477 kts | 266° |
| 2026-05-07 08:20 | 24.96651 | 66.30747 | 21293 ft | 478 kts | 266° |
| 2026-05-07 08:20 | 24.96303 | 66.27089 | 21618 ft | 481 kts | 267° |
| 2026-05-07 08:20 | 24.95950 | 66.23414 | 21947 ft | 482 kts | 267° |
| 2026-05-07 08:20 | 24.95593 | 66.19733 | 22246 ft | 484 kts | 267° |
| 2026-05-07 08:21 | 24.95231 | 66.16031 | 22540 ft | 486 kts | 267° |
| 2026-05-07 08:21 | 24.94866 | 66.12313 | 22837 ft | 488 kts | 267° |
| 2026-05-07 08:21 | 24.94504 | 66.08632 | 23108 ft | 490 kts | 267° |
| 2026-05-07 08:21 | 24.94134 | 66.04888 | 23355 ft | 492 kts | 267° |
| 2026-05-07 08:22 | 24.93764 | 66.01145 | 23573 ft | 492 kts | 267° |
| 2026-05-07 08:22 | 24.93391 | 65.97387 | 23762 ft | 493 kts | 267° |
| 2026-05-07 08:22 | 24.93018 | 65.93626 | 23925 ft | 494 kts | 267° |
| 2026-05-07 08:22 | 24.92643 | 65.89865 | 24064 ft | 495 kts | 267° |
| 2026-05-07 08:23 | 24.92266 | 65.86096 | 24187 ft | 495 kts | 267° |
| 2026-05-07 08:23 | 24.91888 | 65.82318 | 24315 ft | 496 kts | 267° |
| 2026-05-07 08:23 | 24.91508 | 65.78534 | 24411 ft | 496 kts | 267° |
| 2026-05-07 08:23 | 24.91127 | 65.74745 | 24491 ft | 497 kts | 267° |
| 2026-05-07 08:24 | 24.90749 | 65.71003 | 24574 ft | 497 kts | 267° |
| 2026-05-07 08:24 | 24.90367 | 65.67220 | 24686 ft | 496 kts | 267° |
| 2026-05-07 08:24 | 24.89983 | 65.63440 | 24793 ft | 496 kts | 267° |
| 2026-05-07 08:24 | 24.89600 | 65.59668 | 24892 ft | 496 kts | 267° |
| 2026-05-07 08:25 | 24.89215 | 65.55896 | 25012 ft | 495 kts | 267° |
| 2026-05-07 08:25 | 24.88831 | 65.52133 | 25129 ft | 494 kts | 267° |
| 2026-05-07 08:25 | 24.88444 | 65.48363 | 25248 ft | 494 kts | 267° |
| 2026-05-07 08:25 | 24.88058 | 65.44601 | 25367 ft | 493 kts | 267° |
| 2026-05-07 08:26 | 24.87287 | 65.37105 | 25599 ft | 492 kts | 267° |
| 2026-05-07 08:26 | 24.86899 | 65.33357 | 25732 ft | 491 kts | 267° |
| 2026-05-07 08:26 | 24.86513 | 65.29623 | 25850 ft | 491 kts | 267° |
| 2026-05-07 08:27 | 24.86125 | 65.25890 | 25977 ft | 490 kts | 266° |
| 2026-05-07 08:27 | 24.85737 | 65.22162 | 26105 ft | 490 kts | 266° |
| 2026-05-07 08:27 | 24.85349 | 65.18442 | 26232 ft | 489 kts | 266° |
| 2026-05-07 08:27 | 24.84961 | 65.14727 | 26371 ft | 488 kts | 266° |
| 2026-05-07 08:28 | 24.84572 | 65.11018 | 26503 ft | 488 kts | 266° |
| 2026-05-07 08:28 | 24.84182 | 65.07313 | 26637 ft | 487 kts | 266° |
| 2026-05-07 08:28 | 24.83792 | 65.03615 | 26774 ft | 486 kts | 266° |
| 2026-05-07 08:28 | 24.83407 | 64.99967 | 26911 ft | 485 kts | 266° |
| 2026-05-07 08:29 | 24.83016 | 64.96271 | 27050 ft | 485 kts | 266° |
| 2026-05-07 08:29 | 24.82624 | 64.92579 | 27190 ft | 484 kts | 266° |
| 2026-05-07 08:29 | 24.82232 | 64.88901 | 27328 ft | 483 kts | 266° |
| 2026-05-07 08:29 | 24.81841 | 64.85228 | 27465 ft | 483 kts | 266° |
| 2026-05-07 08:30 | 24.81448 | 64.81556 | 27611 ft | 482 kts | 266° |
| 2026-05-07 08:30 | 24.81056 | 64.77895 | 27762 ft | 482 kts | 266° |
| 2026-05-07 08:30 | 24.80662 | 64.74235 | 27921 ft | 481 kts | 266° |
| 2026-05-07 08:30 | 24.80269 | 64.70584 | 28079 ft | 480 kts | 266° |
| 2026-05-07 08:31 | 24.80009 | 64.68176 | 28178 ft | 479 kts | 266° |